Time;durP1;ratioP1;P1;durP2;ratioP2;P2;SDS_P1;SDS_P2;PMS_P1;PMS_P2;Temp;Humidity;BMP_temperature;BMP_pressure;BME280_temperature;BME280_humidity;BME280_pressure;Samples;Min_cycle;Max_cycle;Signal;HPM_P1;HPM_P2
2023/10/31 00:00:03;;;;;;;;;;;12.00;99.90;;;;;;5016131;28;20375;-70
2023/10/31 00:02:30;;;;;;;;;;;12.00;99.90;;;;;;5013890;28;19932;-70
2023/10/31 00:04:57;;;;;;;;;;;12.00;99.90;;;;;;5013573;28;20459;-70
2023/10/31 00:07:24;;;;;;;;;;;12.00;99.90;;;;;;5013637;28;19926;-70
2023/10/31 00:09:50;;;;;;;;;;;12.00;99.90;;;;;;5014309;28;19925;-70
2023/10/31 00:12:17;;;;;;;;;;;12.00;99.90;;;;;;5013687;28;19925;-70
2023/10/31 00:14:43;;;;;;;;;;;12.00;99.90;;;;;;5013604;28;19926;-70
2023/10/31 00:17:10;;;;;;;;;;;12.00;99.90;;;;;;5013281;28;20293;-70
2023/10/31 00:19:37;;;;;;;;;;;11.90;99.90;;;;;;5013558;28;19983;-70
2023/10/31 00:22:05;;;;;;;;;;;11.90;99.90;;;;;;5013497;28;20596;-70
2023/10/31 00:24:32;;;;;;;;;;;11.90;99.90;;;;;;5013552;28;19948;-70
2023/10/31 00:26:58;;;;;;;;;;;11.90;99.90;;;;;;5017733;28;19932;-70
2023/10/31 00:29:25;;;;;;;;;;;11.90;99.90;;;;;;5013135;28;19925;-70
2023/10/31 00:31:51;;;;;;;;;;;11.80;99.90;;;;;;5013218;28;20396;-70
2023/10/31 00:34:18;;;;;;;;;;;11.90;99.90;;;;;;5013445;28;19953;-70
2023/10/31 00:36:44;;;;;;;;;;;11.90;99.90;;;;;;5013945;28;19972;-70
2023/10/31 00:39:12;;;;;;;;;;;11.90;99.90;;;;;;5012967;28;20292;-71
2023/10/31 00:41:40;;;;;;;;;;;11.80;99.90;;;;;;5013322;28;19972;-71
2023/10/31 00:44:06;;;;;;;;;;;11.80;99.90;;;;;;5013321;28;19933;-71
2023/10/31 00:46:33;;;;;;;;;;;11.80;99.90;;;;;;5012969;28;19956;-71
2023/10/31 00:48:59;;;;;;;;;;;11.80;99.90;;;;;;5012808;28;19972;-70
2023/10/31 00:51:26;;;;;;;;;;;11.80;99.90;;;;;;5012802;28;19979;-70
2023/10/31 00:53:52;;;;;;;;;;;11.80;99.90;;;;;;5012937;28;19933;-70
2023/10/31 00:56:20;;;;;;;;;;;11.80;99.90;;;;;;5012976;28;19972;-70
2023/10/31 00:58:46;;;;;;;;;;;11.80;99.90;;;;;;5014640;28;19929;-70
2023/10/31 01:01:13;;;;;;;;;;;11.80;99.90;;;;;;5013063;28;19961;-70
2023/10/31 01:03:39;;;;;;;;;;;11.80;99.90;;;;;;5012996;28;19979;-70
2023/10/31 01:06:06;;;;;;;;;;;11.80;99.90;;;;;;5013564;28;20225;-70
2023/10/31 01:08:33;;;;;;;;;;;11.80;99.90;;;;;;5012801;28;19976;-71
2023/10/31 01:10:59;;;;;;;;;;;11.80;99.90;;;;;;5012661;28;19929;-70
2023/10/31 01:13:27;;;;;;;;;;;11.80;99.90;;;;;;5013014;28;20291;-71
2023/10/31 01:15:54;;;;;;;;;;;11.70;99.90;;;;;;5012600;28;19926;-72
2023/10/31 01:18:20;;;;;;;;;;;11.70;99.90;;;;;;5012420;28;19932;-71
2023/10/31 01:20:47;;;;;;;;;;;11.70;99.90;;;;;;5012791;28;20334;-71
2023/10/31 01:23:13;;;;;;;;;;;11.70;99.90;;;;;;5012560;28;19934;-70
2023/10/31 01:25:40;;;;;;;;;;;11.60;99.90;;;;;;5012325;28;19926;-71
2023/10/31 01:28:06;;;;;;;;;;;11.60;99.90;;;;;;5012405;28;19995;-71
2023/10/31 01:30:34;;;;;;;;;;;11.50;99.90;;;;;;5012176;28;19959;-71
2023/10/31 01:33:00;;;;;;;;;;;11.50;99.90;;;;;;5013966;28;19926;-71
2023/10/31 01:35:27;;;;;;;;;;;11.50;99.90;;;;;;5012122;28;20347;-70
2023/10/31 01:37:54;;;;;;;;;;;11.50;99.90;;;;;;5012067;28;19926;-71
2023/10/31 01:40:21;;;;;;;;;;;11.40;99.90;;;;;;5012016;28;19957;-71
2023/10/31 01:42:47;;;;;;;;;;;11.40;99.90;;;;;;5012135;28;19972;-71
2023/10/31 01:45:14;;;;;;;;;;;11.30;99.90;;;;;;5012149;28;20082;-71
2023/10/31 01:47:43;;;;;;;;;;;11.30;99.90;;;;;;5011977;28;19979;-71
2023/10/31 01:50:10;;;;;;;;;;;11.30;99.90;;;;;;5008702;28;19926;-71
2023/10/31 01:52:37;;;;;;;;;;;11.20;99.90;;;;;;5012207;28;19968;-71
2023/10/31 01:55:05;;;;;;;;;;;11.20;99.90;;;;;;5011779;28;20000;-71
2023/10/31 01:57:31;;;;;;;;;;;11.10;99.90;;;;;;5012901;28;20024;-71
2023/10/31 01:59:58;;;;;;;;;;;11.10;99.90;;;;;;5011595;28;19925;-71
2023/10/31 02:02:26;;;;;;;;;;;11.10;99.90;;;;;;5012113;28;19925;-71
2023/10/31 02:04:54;;;;;;;;;;;11.10;99.90;;;;;;5011675;28;20273;-71
2023/10/31 02:07:20;;;;;;;;;;;11.00;99.90;;;;;;5011549;28;19979;-71
2023/10/31 02:09:47;;;;;;;;;;;11.00;99.90;;;;;;5011622;28;19937;-71
2023/10/31 02:12:28;;;;;;;;;;;11.00;99.90;;;;;;5012106;28;20450;-71
2023/10/31 02:14:55;;;;;;;;;;;11.00;99.90;;;;;;5011365;28;20442;-71
2023/10/31 02:17:21;;;;;;;;;;;11.00;99.90;;;;;;5011494;28;19929;-71
2023/10/31 02:19:48;;;;;;;;;;;11.00;99.90;;;;;;5011263;28;19925;-71
2023/10/31 02:22:16;;;;;;;;;;;11.00;99.90;;;;;;5011194;28;19926;-71
2023/10/31 02:24:42;;;;;;;;;;;10.90;99.90;;;;;;5011207;28;20376;-71
2023/10/31 02:27:09;;;;;;;;;;;11.00;99.90;;;;;;5015625;28;19925;-71
2023/10/31 02:29:35;;;;;;;;;;;10.90;99.90;;;;;;5011628;28;19979;-71
2023/10/31 02:32:02;;;;;;;;;;;10.90;99.90;;;;;;5012426;28;19925;-70
2023/10/31 02:34:28;;;;;;;;;;;10.90;99.90;;;;;;5011517;28;19971;-71
2023/10/31 02:36:55;;;;;;;;;;;10.90;99.90;;;;;;5011148;28;19925;-71
2023/10/31 02:39:23;;;;;;;;;;;10.90;99.90;;;;;;5011293;28;19979;-70
2023/10/31 02:41:49;;;;;;;;;;;10.80;99.90;;;;;;5010540;28;19926;-71
2023/10/31 02:44:16;;;;;;;;;;;10.80;99.90;;;;;;5011552;28;20391;-71
2023/10/31 02:46:42;;;;;;;;;;;10.80;99.90;;;;;;5011191;28;20350;-71
2023/10/31 02:49:09;;;;;;;;;;;10.70;99.90;;;;;;5009596;28;19925;-71
2023/10/31 02:51:36;;;;;;;;;;;10.70;99.90;;;;;;5011478;28;20348;-71
2023/10/31 02:54:03;;;;;;;;;;;10.70;99.90;;;;;;5011899;28;20036;-71
2023/10/31 02:56:30;;;;;;;;;;;10.70;99.90;;;;;;5011186;28;20399;-71
2023/10/31 02:58:57;;;;;;;;;;;10.70;99.90;;;;;;5011640;28;19953;-71
2023/10/31 03:01:23;;;;;;;;;;;10.60;99.90;;;;;;5011288;28;19934;-71
2023/10/31 03:03:50;;;;;;;;;;;10.60;99.90;;;;;;5011188;28;19925;-71
2023/10/31 03:06:16;;;;;;;;;;;10.60;99.90;;;;;;5011278;28;19930;-71
2023/10/31 03:08:43;;;;;;;;;;;10.60;99.90;;;;;;5011352;28;19996;-71
2023/10/31 03:11:09;;;;;;;;;;;10.60;99.90;;;;;;5008549;28;19979;-71
2023/10/31 03:13:37;;;;;;;;;;;10.60;99.90;;;;;;5014849;28;19925;-71
2023/10/31 03:16:04;;;;;;;;;;;10.60;99.90;;;;;;5014773;28;19992;-71
2023/10/31 03:18:30;;;;;;;;;;;10.60;99.90;;;;;;5014268;28;19929;-71
2023/10/31 03:20:57;;;;;;;;;;;10.60;99.90;;;;;;5014816;28;19926;-71
2023/10/31 03:23:23;;;;;;;;;;;10.60;99.90;;;;;;5014928;28;19991;-71
2023/10/31 03:25:50;;;;;;;;;;;10.60;99.90;;;;;;5014361;28;19929;-71
2023/10/31 03:28:22;;;;;;;;;;;10.50;99.90;;;;;;5014381;28;19926;-71
2023/10/31 03:30:51;;;;;;;;;;;10.60;99.90;;;;;;5014313;28;19961;-71
2023/10/31 03:33:17;;;;;;;;;;;10.50;99.90;;;;;;5014590;28;20387;-71
2023/10/31 03:35:44;;;;;;;;;;;10.50;99.90;;;;;;5016544;28;19983;-71
2023/10/31 03:38:11;;;;;;;;;;;10.40;99.90;;;;;;5014336;28;20020;-71
2023/10/31 03:40:37;;;;;;;;;;;10.40;99.90;;;;;;5014348;28;19929;-71
2023/10/31 03:43:04;;;;;;;;;;;10.40;99.90;;;;;;5014690;28;19937;-70
2023/10/31 03:45:30;;;;;;;;;;;10.30;99.90;;;;;;5015621;28;19929;-71
2023/10/31 03:47:58;;;;;;;;;;;10.40;99.90;;;;;;5013759;28;19925;-71
2023/10/31 03:50:24;;;;;;;;;;;10.40;99.90;;;;;;5014321;28;19926;-71
2023/10/31 03:52:51;;;;;;;;;;;10.40;99.90;;;;;;5013828;28;20380;-71
2023/10/31 03:55:17;;;;;;;;;;;10.40;99.90;;;;;;5014169;28;19996;-71
2023/10/31 03:57:44;;;;;;;;;;;10.40;99.90;;;;;;5013628;28;19976;-72
2023/10/31 04:00:11;;;;;;;;;;;10.40;99.90;;;;;;5014000;28;20342;-71
2023/10/31 04:02:40;;;;;;;;;;;10.40;99.90;;;;;;5013799;28;19925;-71
2023/10/31 04:05:08;;;;;;;;;;;10.40;99.90;;;;;;5013546;28;19925;-71
2023/10/31 04:07:34;;;;;;;;;;;10.40;99.90;;;;;;5013064;28;19929;-71
2023/10/31 04:10:01;;;;;;;;;;;10.40;99.90;;;;;;5013347;28;20414;-71
2023/10/31 04:12:27;;;;;;;;;;;10.40;99.90;;;;;;5013394;28;19925;-71
2023/10/31 04:14:53;;;;;;;;;;;10.40;99.90;;;;;;5013904;28;19933;-71
2023/10/31 04:17:20;;;;;;;;;;;10.30;99.90;;;;;;5013482;28;20339;-71
2023/10/31 04:19:46;;;;;;;;;;;10.30;99.90;;;;;;5016860;28;19930;-71
2023/10/31 04:22:15;;;;;;;;;;;10.20;99.90;;;;;;5012967;28;20351;-71
2023/10/31 04:24:41;;;;;;;;;;;10.20;99.90;;;;;;5013577;28;20092;-71
2023/10/31 04:27:08;;;;;;;;;;;10.10;99.90;;;;;;5012943;28;19926;-71
2023/10/31 04:29:34;;;;;;;;;;;10.10;99.90;;;;;;5013565;28;20012;-71
2023/10/31 04:32:01;;;;;;;;;;;10.10;99.90;;;;;;5013336;28;19926;-71
2023/10/31 04:34:27;;;;;;;;;;;10.00;99.90;;;;;;5013536;28;20039;-71
2023/10/31 04:36:54;;;;;;;;;;;10.00;99.90;;;;;;5013009;28;19934;-72
2023/10/31 04:39:22;;;;;;;;;;;10.00;99.90;;;;;;5014924;28;20355;-71
2023/10/31 04:41:48;;;;;;;;;;;9.90;99.90;;;;;;5010131;28;19925;-71
2023/10/31 04:44:16;;;;;;;;;;;9.90;99.90;;;;;;5013293;28;19948;-71
2023/10/31 04:46:43;;;;;;;;;;;9.90;99.90;;;;;;5012825;28;19936;-71
2023/10/31 04:49:09;;;;;;;;;;;9.90;99.90;;;;;;5007789;28;20040;-71
2023/10/31 04:51:36;;;;;;;;;;;9.90;99.90;;;;;;5012899;28;20402;-71
2023/10/31 04:54:02;;;;;;;;;;;10.00;99.90;;;;;;5012972;28;19929;-70
2023/10/31 04:56:30;;;;;;;;;;;10.00;99.90;;;;;;5012733;28;19930;-71
2023/10/31 04:58:57;;;;;;;;;;;10.00;99.90;;;;;;5012810;28;19925;-71
2023/10/31 05:01:24;;;;;;;;;;;10.00;99.90;;;;;;5013046;28;19925;-71
2023/10/31 05:03:50;;;;;;;;;;;10.00;99.90;;;;;;5012805;28;19925;-71
2023/10/31 05:06:19;;;;;;;;;;;10.00;99.90;;;;;;5014138;28;20358;-70
2023/10/31 05:08:46;;;;;;;;;;;10.00;99.90;;;;;;5012119;28;19926;-71
2023/10/31 05:11:12;;;;;;;;;;;10.00;99.90;;;;;;5012948;28;19979;-70
2023/10/31 05:13:40;;;;;;;;;;;10.00;99.90;;;;;;5012706;28;19987;-71
2023/10/31 05:16:07;;;;;;;;;;;10.00;99.90;;;;;;5012527;28;19971;-70
2023/10/31 05:18:34;;;;;;;;;;;10.00;99.90;;;;;;5012175;28;19999;-70
2023/10/31 05:21:00;;;;;;;;;;;10.10;99.90;;;;;;5012574;28;20351;-70
2023/10/31 05:23:27;;;;;;;;;;;10.00;99.90;;;;;;5012185;28;19929;-70
2023/10/31 05:25:53;;;;;;;;;;;10.00;99.90;;;;;;5015271;28;19952;-70
2023/10/31 05:28:20;;;;;;;;;;;10.00;99.90;;;;;;5011668;28;19933;-70
2023/10/31 05:30:48;;;;;;;;;;;10.00;99.90;;;;;;5011826;28;19925;-70
2023/10/31 05:33:15;;;;;;;;;;;10.00;99.90;;;;;;5011339;28;20687;-70
2023/10/31 05:35:42;;;;;;;;;;;10.00;99.90;;;;;;5013622;28;19980;-70
2023/10/31 05:38:08;;;;;;;;;;;10.00;99.90;;;;;;5011696;28;19929;-70
2023/10/31 05:40:35;;;;;;;;;;;10.00;99.90;;;;;;5012648;28;19929;-70
2023/10/31 05:43:02;;;;;;;;;;;10.00;99.90;;;;;;5012232;28;19926;-70
2023/10/31 05:45:28;;;;;;;;;;;10.00;99.90;;;;;;5012032;28;20392;-70
2023/10/31 05:47:56;;;;;;;;;;;10.00;99.90;;;;;;5011604;28;19929;-70
2023/10/31 05:50:23;;;;;;;;;;;10.00;99.90;;;;;;5012023;28;19996;-70
2023/10/31 05:52:49;;;;;;;;;;;10.00;99.90;;;;;;5011905;28;20466;-70
2023/10/31 05:55:16;;;;;;;;;;;9.90;99.90;;;;;;5012148;28;19979;-70
2023/10/31 05:57:42;;;;;;;;;;;10.00;99.90;;;;;;5011972;28;19929;-70
2023/10/31 06:00:09;;;;;;;;;;;9.90;99.90;;;;;;5006342;28;19980;-70
2023/10/31 06:02:36;;;;;;;;;;;9.90;99.90;;;;;;5013670;28;19972;-70
2023/10/31 06:05:04;;;;;;;;;;;9.90;99.90;;;;;;5011372;28;19925;-70
2023/10/31 06:07:31;;;;;;;;;;;9.90;99.90;;;;;;5015707;28;19925;-68
2023/10/31 06:09:57;;;;;;;;;;;9.90;99.90;;;;;;5020527;28;19925;-70
2023/10/31 06:12:24;;;;;;;;;;;9.90;99.90;;;;;;5012062;28;19995;-70
2023/10/31 06:14:50;;;;;;;;;;;10.00;99.90;;;;;;5011719;28;19960;-70
2023/10/31 06:17:17;;;;;;;;;;;10.00;99.90;;;;;;5011530;28;20319;-70
2023/10/31 06:19:45;;;;;;;;;;;10.10;99.90;;;;;;5011408;28;19933;-70
2023/10/31 06:22:13;;;;;;;;;;;10.10;99.90;;;;;;5006273;28;19926;-69
2023/10/31 06:24:40;;;;;;;;;;;10.20;99.90;;;;;;5011798;28;19980;-70
2023/10/31 06:27:07;;;;;;;;;;;10.20;99.90;;;;;;5011601;28;19979;-70
2023/10/31 06:29:33;;;;;;;;;;;10.20;99.90;;;;;;5011886;28;19925;-70
2023/10/31 06:32:01;;;;;;;;;;;10.20;99.90;;;;;;5011710;28;19926;-70
2023/10/31 06:34:27;;;;;;;;;;;10.20;99.90;;;;;;5011492;28;19935;-70
2023/10/31 06:36:54;;;;;;;;;;;10.30;99.90;;;;;;5011464;28;19930;-70
2023/10/31 06:39:23;;;;;;;;;;;10.20;99.90;;;;;;5011621;28;19929;-70
2023/10/31 06:41:49;;;;;;;;;;;10.20;99.90;;;;;;5011578;28;19932;-70
2023/10/31 06:44:16;;;;;;;;;;;10.20;99.90;;;;;;5011580;28;19933;-70
2023/10/31 06:46:42;;;;;;;;;;;10.30;99.90;;;;;;5014884;28;19925;-69
2023/10/31 06:49:08;;;;;;;;;;;10.20;99.90;;;;;;5015395;28;19995;-70
2023/10/31 06:51:35;;;;;;;;;;;10.20;99.90;;;;;;5015281;28;19930;-70
2023/10/31 06:54:01;;;;;;;;;;;10.20;99.90;;;;;;5015107;28;19925;-70
2023/10/31 06:56:29;;;;;;;;;;;10.20;99.90;;;;;;5015095;28;19953;-70
2023/10/31 06:58:56;;;;;;;;;;;10.20;99.90;;;;;;5014850;28;19983;-69
2023/10/31 07:01:22;;;;;;;;;;;10.20;99.90;;;;;;5014880;28;19995;-69
2023/10/31 07:03:49;;;;;;;;;;;10.20;99.90;;;;;;5015220;28;19925;-69
2023/10/31 07:06:15;;;;;;;;;;;10.20;99.90;;;;;;5014695;28;20400;-69
2023/10/31 07:08:42;;;;;;;;;;;10.20;99.90;;;;;;5014766;28;19987;-69
2023/10/31 07:11:08;;;;;;;;;;;10.20;99.90;;;;;;5014826;28;20458;-70
2023/10/31 07:13:36;;;;;;;;;;;10.20;99.90;;;;;;5015002;28;19930;-70
2023/10/31 07:16:03;;;;;;;;;;;10.20;99.90;;;;;;5014508;28;19925;-69
2023/10/31 07:18:29;;;;;;;;;;;10.20;99.90;;;;;;5014780;28;19980;-70
2023/10/31 07:20:56;;;;;;;;;;;10.30;99.90;;;;;;5014676;28;20342;-69
2023/10/31 07:23:22;;;;;;;;;;;10.20;99.90;;;;;;5015022;28;19929;-69
2023/10/31 07:25:49;;;;;;;;;;;10.30;99.90;;;;;;5014451;28;19929;-69
2023/10/31 07:28:17;;;;;;;;;;;10.30;99.90;;;;;;5014197;28;19933;-69
2023/10/31 07:30:45;;;;;;;;;;;10.30;99.90;;;;;;5014483;28;20020;-70
2023/10/31 07:33:11;;;;;;;;;;;10.40;99.90;;;;;;5008146;28;19926;-69
2023/10/31 07:35:38;;;;;;;;;;;10.50;99.90;;;;;;5014387;28;19929;-69
2023/10/31 07:38:04;;;;;;;;;;;10.50;99.90;;;;;;5014590;28;19944;-69
2023/10/31 07:40:31;;;;;;;;;;;10.50;99.90;;;;;;5014524;28;19995;-69
2023/10/31 07:42:57;;;;;;;;;;;10.60;99.90;;;;;;5014013;28;19933;-69
2023/10/31 07:45:24;;;;;;;;;;;10.60;99.90;;;;;;5014449;28;20551;-69
2023/10/31 07:47:51;;;;;;;;;;;10.70;99.90;;;;;;5013879;28;19926;-69
2023/10/31 07:50:18;;;;;;;;;;;10.80;99.90;;;;;;5014180;28;20419;-69
2023/10/31 07:52:46;;;;;;;;;;;10.80;99.90;;;;;;5014015;28;19926;-69
2023/10/31 07:55:13;;;;;;;;;;;10.70;99.90;;;;;;5014145;28;19925;-69
2023/10/31 07:57:39;;;;;;;;;;;10.70;99.90;;;;;;5012671;28;19980;-69
2023/10/31 08:00:10;;;;;;;;;;;10.70;99.90;;;;;;5014046;28;20466;-69
2023/10/31 08:02:37;;;;;;;;;;;10.70;99.90;;;;;;5013779;28;19939;-69
2023/10/31 08:05:05;;;;;;;;;;;10.70;99.90;;;;;;5014044;28;20000;-69
2023/10/31 08:07:32;;;;;;;;;;;10.60;99.90;;;;;;5013418;28;19953;-69
2023/10/31 08:09:58;;;;;;;;;;;10.60;99.90;;;;;;5013686;28;19933;-69
2023/10/31 08:12:25;;;;;;;;;;;10.60;99.90;;;;;;5013544;28;20287;-69
2023/10/31 08:14:51;;;;;;;;;;;10.50;99.90;;;;;;5013665;28;19930;-69
2023/10/31 08:17:18;;;;;;;;;;;10.60;99.90;;;;;;5013341;28;19972;-69
2023/10/31 08:19:44;;;;;;;;;;;10.50;99.90;;;;;;5013548;28;19925;-70
2023/10/31 08:22:12;;;;;;;;;;;10.40;99.90;;;;;;5013643;28;19984;-69
2023/10/31 08:24:38;;;;;;;;;;;10.50;99.90;;;;;;5013393;28;19925;-69
2023/10/31 08:27:05;;;;;;;;;;;10.50;99.90;;;;;;5013413;28;19926;-69
2023/10/31 08:29:32;;;;;;;;;;;10.50;99.90;;;;;;5013528;28;19933;-69
2023/10/31 08:31:58;;;;;;;;;;;10.50;99.90;;;;;;5013240;28;19949;-69
2023/10/31 08:34:25;;;;;;;;;;;10.50;99.90;;;;;;5013480;28;20339;-69
2023/10/31 08:36:52;;;;;;;;;;;10.50;99.90;;;;;;5013019;28;19925;-68
2023/10/31 08:39:20;;;;;;;;;;;10.50;99.90;;;;;;5013179;28;19940;-69
2023/10/31 08:41:50;;;;;;;;;;;10.60;99.90;;;;;;5013309;28;19991;-69
2023/10/31 08:44:17;;;;;;;;;;;10.60;99.90;;;;;;5013398;28;19929;-69
2023/10/31 08:46:43;;;;;;;;;;;10.60;99.90;;;;;;5012940;28;20415;-69
2023/10/31 08:49:10;;;;;;;;;;;10.70;99.90;;;;;;5005357;28;19933;-69
2023/10/31 08:51:36;;;;;;;;;;;10.70;99.90;;;;;;5013095;28;19937;-69
2023/10/31 08:54:03;;;;;;;;;;;10.70;99.90;;;;;;5012962;28;20292;-69
2023/10/31 08:56:31;;;;;;;;;;;10.70;99.90;;;;;;5013154;28;19926;-69
2023/10/31 08:58:57;;;;;;;;;;;10.80;99.90;;;;;;5012685;28;19983;-69
2023/10/31 09:01:24;;;;;;;;;;;10.80;99.90;;;;;;5013133;28;20355;-69
2023/10/31 09:03:51;;;;;;;;;;;10.90;99.90;;;;;;5012684;28;19925;-69
2023/10/31 09:06:18;;;;;;;;;;;10.80;99.90;;;;;;5012593;28;19964;-69
2023/10/31 09:08:44;;;;;;;;;;;10.80;99.90;;;;;;5011166;28;20394;-69
2023/10/31 09:11:11;;;;;;;;;;;10.90;99.90;;;;;;5012905;28;19980;-69
2023/10/31 09:13:38;;;;;;;;;;;10.90;99.90;;;;;;5012686;28;19976;-69
2023/10/31 09:16:05;;;;;;;;;;;10.80;99.90;;;;;;5012663;28;19925;-69
2023/10/31 09:18:32;;;;;;;;;;;10.90;99.90;;;;;;5012303;28;19979;-68
2023/10/31 09:20:58;;;;;;;;;;;10.90;99.90;;;;;;5012413;28;19973;-69
2023/10/31 09:23:25;;;;;;;;;;;10.90;99.90;;;;;;5012459;28;19999;-69
2023/10/31 09:25:52;;;;;;;;;;;10.90;99.90;;;;;;5012538;28;19929;-69
2023/10/31 09:28:18;;;;;;;;;;;10.90;99.90;;;;;;5012020;28;20388;-68
2023/10/31 09:30:46;;;;;;;;;;;11.00;99.90;;;;;;5012438;28;20285;-69
2023/10/31 09:33:13;;;;;;;;;;;11.00;99.90;;;;;;5012432;28;20391;-69
2023/10/31 09:35:39;;;;;;;;;;;11.00;99.90;;;;;;5012101;28;19934;-69
2023/10/31 09:38:06;;;;;;;;;;;11.10;99.90;;;;;;5012167;28;19937;-69
2023/10/31 09:40:32;;;;;;;;;;;11.10;99.90;;;;;;5012423;28;19925;-69
2023/10/31 09:42:59;;;;;;;;;;;11.20;99.90;;;;;;5012286;28;19972;-69
2023/10/31 09:45:25;;;;;;;;;;;11.20;99.90;;;;;;5012228;28;19925;-68
2023/10/31 09:47:53;;;;;;;;;;;11.30;99.90;;;;;;5011667;28;19926;-69
2023/10/31 09:50:20;;;;;;;;;;;11.20;99.90;;;;;;5012201;28;19929;-68
2023/10/31 09:52:47;;;;;;;;;;;11.30;99.90;;;;;;5012334;28;19972;-68
2023/10/31 09:55:14;;;;;;;;;;;11.30;99.90;;;;;;5012126;28;19925;-68
2023/10/31 09:57:40;;;;;;;;;;;11.50;99.90;;;;;;5011979;28;19926;-69
2023/10/31 10:00:08;;;;;;;;;;;11.50;99.90;;;;;;5011810;28;20343;-69
2023/10/31 10:02:34;;;;;;;;;;;11.60;99.90;;;;;;5011952;28;20016;-68
2023/10/31 10:05:02;;;;;;;;;;;11.70;99.90;;;;;;5012022;28;19996;-69
2023/10/31 10:07:29;;;;;;;;;;;11.80;99.90;;;;;;5011888;28;19925;-69
2023/10/31 10:09:56;;;;;;;;;;;11.80;99.90;;;;;;5011693;28;19926;-69
2023/10/31 10:12:23;;;;;;;;;;;12.00;99.90;;;;;;5012038;28;19925;-68
2023/10/31 10:14:49;;;;;;;;;;;12.10;99.90;;;;;;5011602;28;20395;-68
2023/10/31 10:17:17;;;;;;;;;;;12.20;99.90;;;;;;5011574;28;19929;-68
2023/10/31 10:19:43;;;;;;;;;;;12.40;99.90;;;;;;5012579;28;19925;-69
2023/10/31 10:22:11;;;;;;;;;;;12.70;99.90;;;;;;5016308;28;19972;-68
2023/10/31 10:24:40;;;;;;;;;;;13.00;99.90;;;;;;5015817;28;19940;-68
2023/10/31 10:27:07;;;;;;;;;;;13.20;99.90;;;;;;5015664;28;19979;-69
2023/10/31 10:29:34;;;;;;;;;;;13.30;99.90;;;;;;5015485;28;19947;-68
2023/10/31 10:32:00;;;;;;;;;;;13.40;99.90;;;;;;5015548;28;19993;-68
2023/10/31 10:34:27;;;;;;;;;;;13.40;99.90;;;;;;5015885;28;20065;-69
2023/10/31 10:36:54;;;;;;;;;;;13.40;99.90;;;;;;5015422;28;19929;-68
2023/10/31 10:39:23;;;;;;;;;;;13.60;99.90;;;;;;5015589;28;19932;-69
2023/10/31 10:41:53;;;;;;;;;;;14.00;99.90;;;;;;5015518;28;19979;-68
2023/10/31 10:44:20;;;;;;;;;;;14.30;99.90;;;;;;5015862;28;20405;-68
2023/10/31 10:46:47;;;;;;;;;;;14.00;99.90;;;;;;5015316;28;19929;-69
2023/10/31 10:49:15;;;;;;;;;;;13.70;99.90;;;;;;5015430;28;19956;-69
2023/10/31 10:51:46;;;;;;;;;;;13.40;99.90;;;;;;5015292;28;19972;-69
2023/10/31 10:54:16;;;;;;;;;;;13.30;99.90;;;;;;5014894;28;19980;-69
2023/10/31 10:56:45;;;;;;;;;;;13.20;99.90;;;;;;5014877;28;19932;-69
2023/10/31 10:59:15;;;;;;;;;;;13.10;99.90;;;;;;5014557;28;19996;-68
2023/10/31 11:01:42;;;;;;;;;;;13.00;99.90;;;;;;5015322;28;19925;-69
2023/10/31 11:04:09;;;;;;;;;;;13.20;99.90;;;;;;5015164;28;19929;-68
2023/10/31 11:06:37;;;;;;;;;;;13.40;99.90;;;;;;5014926;28;19972;-69
2023/10/31 11:09:06;;;;;;;;;;;13.70;99.90;;;;;;5014596;28;19925;-69
2023/10/31 11:11:33;;;;;;;;;;;14.00;99.90;;;;;;5014796;28;19936;-69
2023/10/31 11:14:02;;;;;;;;;;;14.30;99.90;;;;;;5015090;28;19929;-69
2023/10/31 11:16:30;;;;;;;;;;;14.60;99.90;;;;;;5014879;28;19926;-69
2023/10/31 11:18:57;;;;;;;;;;;14.80;99.90;;;;;;5014634;28;19929;-69
2023/10/31 11:21:24;;;;;;;;;;;14.80;99.90;;;;;;5014591;28;20383;-68
2023/10/31 11:23:57;;;;;;;;;;;14.90;99.90;;;;;;5014663;28;19925;-69
2023/10/31 11:26:26;;;;;;;;;;;15.10;99.90;;;;;;5014768;28;19929;-70
2023/10/31 11:28:52;;;;;;;;;;;15.20;99.90;;;;;;5014511;28;19925;-69
2023/10/31 11:31:20;;;;;;;;;;;15.00;99.90;;;;;;5013341;28;19932;-69
2023/10/31 11:33:48;;;;;;;;;;;14.90;99.90;;;;;;5014663;28;19929;-70
2023/10/31 11:36:15;;;;;;;;;;;14.70;99.90;;;;;;5014026;28;19980;-69
2023/10/31 11:38:42;;;;;;;;;;;14.70;99.90;;;;;;5014237;28;20399;-69
2023/10/31 11:41:09;;;;;;;;;;;14.60;99.90;;;;;;5014438;28;19987;-71
2023/10/31 11:43:54;;;;;;;;;;;14.60;99.90;;;;;;5014694;28;19971;-70
2023/10/31 11:46:23;;;;;;;;;;;14.70;99.90;;;;;;5007539;28;20392;-70
2023/10/31 11:48:51;;;;;;;;;;;14.80;99.90;;;;;;5013743;28;19953;-70
2023/10/31 11:51:17;;;;;;;;;;;14.80;99.90;;;;;;5014269;28;19976;-70
2023/10/31 11:53:44;;;;;;;;;;;14.60;99.90;;;;;;5014407;28;19930;-70
2023/10/31 11:56:11;;;;;;;;;;;14.50;99.90;;;;;;5012724;28;19925;-70
2023/10/31 11:58:38;;;;;;;;;;;14.50;99.90;;;;;;5013756;28;20393;-69
2023/10/31 12:01:05;;;;;;;;;;;14.50;99.90;;;;;;5014099;28;19941;-69
2023/10/31 12:03:39;;;;;;;;;;;14.80;99.90;;;;;;5013756;28;19953;-69
2023/10/31 12:06:06;;;;;;;;;;;15.00;99.90;;;;;;5013922;28;19932;-67
2023/10/31 12:08:33;;;;;;;;;;;15.20;99.90;;;;;;5013408;28;20284;-67
2023/10/31 12:11:06;;;;;;;;;;;15.40;99.90;;;;;;5013933;28;19929;-67
2023/10/31 12:13:33;;;;;;;;;;;15.60;99.90;;;;;;5013764;28;19930;-67
2023/10/31 12:16:00;;;;;;;;;;;15.80;99.90;;;;;;5013490;28;19926;-67
2023/10/31 12:18:27;;;;;;;;;;;15.90;99.90;;;;;;5013577;28;19987;-67
2023/10/31 12:20:55;;;;;;;;;;;15.80;99.90;;;;;;5013762;28;20355;-68
2023/10/31 12:23:21;;;;;;;;;;;15.80;99.90;;;;;;5013310;28;20277;-67
2023/10/31 12:25:48;;;;;;;;;;;15.80;99.90;;;;;;5013557;28;19979;-67
2023/10/31 12:28:17;;;;;;;;;;;15.90;99.90;;;;;;5013067;28;19995;-67
2023/10/31 12:30:45;;;;;;;;;;;15.60;99.90;;;;;;5013801;28;19933;-67
2023/10/31 12:33:11;;;;;;;;;;;15.30;99.90;;;;;;5011748;28;19925;-67
2023/10/31 12:35:38;;;;;;;;;;;14.90;99.90;;;;;;5013814;28;19972;-68
2023/10/31 12:38:06;;;;;;;;;;;14.50;99.90;;;;;;5012928;28;19937;-67
2023/10/31 12:40:34;;;;;;;;;;;14.40;99.90;;;;;;5013453;28;19925;-67
2023/10/31 12:43:01;;;;;;;;;;;14.30;99.90;;;;;;5012586;28;19926;-68
2023/10/31 12:45:27;;;;;;;;;;;14.20;99.90;;;;;;5013283;28;19925;-68
2023/10/31 12:48:04;;;;;;;;;;;14.40;99.90;;;;;;5012721;28;19925;-68
2023/10/31 12:50:31;;;;;;;;;;;14.70;99.90;;;;;;5013095;28;19926;-67
2023/10/31 12:52:59;;;;;;;;;;;14.60;99.90;;;;;;5013024;28;19925;-67
2023/10/31 12:55:27;;;;;;;;;;;14.60;99.90;;;;;;5013023;28;19932;-68
2023/10/31 12:57:54;;;;;;;;;;;14.70;99.90;;;;;;5012815;28;19930;-68
2023/10/31 13:00:25;;;;;;;;;;;15.10;99.90;;;;;;5012825;28;20429;-68
2023/10/31 13:02:52;;;;;;;;;;;15.40;99.90;;;;;;5012807;28;20411;-68
2023/10/31 13:05:19;;;;;;;;;;;15.60;99.90;;;;;;5012857;28;20020;-67
2023/10/31 13:07:48;;;;;;;;;;;15.70;99.90;;;;;;5012413;28;19929;-68
2023/10/31 13:10:16;;;;;;;;;;;16.00;99.90;;;;;;5012501;28;19925;-68
2023/10/31 13:12:46;;;;;;;;;;;16.00;99.90;;;;;;5013035;28;19930;-68
2023/10/31 13:15:12;;;;;;;;;;;16.20;99.90;;;;;;5010620;28;20323;-67
2023/10/31 13:17:41;;;;;;;;;;;16.10;99.90;;;;;;5012482;28;19971;-68
2023/10/31 13:20:09;;;;;;;;;;;15.80;99.90;;;;;;5012378;28;19925;-68
2023/10/31 13:22:35;;;;;;;;;;;16.00;99.90;;;;;;5012429;28;20448;-68
2023/10/31 13:25:04;;;;;;;;;;;16.20;99.90;;;;;;5012322;28;19929;-68
2023/10/31 13:27:31;;;;;;;;;;;16.10;99.90;;;;;;5012387;28;19935;-68
2023/10/31 13:29:59;;;;;;;;;;;15.90;99.90;;;;;;5012328;28;19929;-67
2023/10/31 13:32:25;;;;;;;;;;;15.60;99.90;;;;;;5012366;28;19929;-67
2023/10/31 13:34:51;;;;;;;;;;;15.40;99.90;;;;;;5012166;28;19929;-68
2023/10/31 13:37:18;;;;;;;;;;;15.40;99.90;;;;;;5011815;28;19925;-68
2023/10/31 13:39:44;;;;;;;;;;;15.30;99.90;;;;;;5012340;28;19980;-68
2023/10/31 13:42:11;;;;;;;;;;;15.20;99.90;;;;;;5012299;28;20388;-68
2023/10/31 13:44:37;;;;;;;;;;;15.10;99.90;;;;;;5012539;28;19925;-68
2023/10/31 13:47:05;;;;;;;;;;;14.90;99.90;;;;;;5011972;28;19976;-68
2023/10/31 13:49:32;;;;;;;;;;;15.00;99.90;;;;;;5011845;28;19930;-68
2023/10/31 13:51:58;;;;;;;;;;;15.10;99.90;;;;;;5011973;28;19933;-68
2023/10/31 13:54:25;;;;;;;;;;;15.30;99.90;;;;;;5011312;28;19934;-68
2023/10/31 13:56:52;;;;;;;;;;;15.40;99.90;;;;;;5012024;28;20315;-67
2023/10/31 13:59:19;;;;;;;;;;;15.50;99.90;;;;;;5011923;28;19926;-68
2023/10/31 14:01:46;;;;;;;;;;;15.40;99.90;;;;;;5011984;28;19929;-67
2023/10/31 14:04:14;;;;;;;;;;;15.40;99.90;;;;;;5011670;28;19932;-67
2023/10/31 14:06:41;;;;;;;;;;;15.20;99.90;;;;;;5011970;28;19929;-67
2023/10/31 14:09:08;;;;;;;;;;;15.10;99.90;;;;;;5011932;28;20000;-68
2023/10/31 14:11:35;;;;;;;;;;;15.10;99.90;;;;;;5012161;28;19925;-68
2023/10/31 14:14:06;;;;;;;;;;;15.00;99.90;;;;;;5011982;28;20379;-68
2023/10/31 14:16:32;;;;;;;;;;;15.00;99.90;;;;;;5011809;28;19967;-68